sensor_id;sensor_type;location;lat;lon;timestamp;pressure;altitude;pressure_sealevel;temperature;humidity
8653;BME280;4364;52.426;9.424;2022-12-29T00:01:39;99802.72;;;7.77;100.00
8653;BME280;4364;52.426;9.424;2022-12-29T00:04:06;99800.84;;;7.72;100.00
8653;BME280;4364;52.426;9.424;2022-12-29T00:06:40;99808.66;;;7.79;100.00
8653;BME280;4364;52.426;9.424;2022-12-29T00:09:06;99803.47;;;7.83;100.00
8653;BME280;4364;52.426;9.424;2022-12-29T00:11:33;99801.03;;;7.86;100.00
8653;BME280;4364;52.426;9.424;2022-12-29T00:13:59;99789.41;;;7.86;100.00
8653;BME280;4364;52.426;9.424;2022-12-29T00:16:51;99779.59;;;7.90;100.00
8653;BME280;4364;52.426;9.424;2022-12-29T00:19:18;99787.97;;;7.98;100.00
8653;BME280;4364;52.426;9.424;2022-12-29T00:22:03;99790.13;;;7.96;100.00
8653;BME280;4364;52.426;9.424;2022-12-29T00:24:48;99786.56;;;8.01;100.00
8653;BME280;4364;52.426;9.424;2022-12-29T00:27:33;99778.44;;;8.01;100.00
8653;BME280;4364;52.426;9.424;2022-12-29T00:30:20;99768.88;;;8.14;100.00
8653;BME280;4364;52.426;9.424;2022-12-29T00:33:19;99770.75;;;8.19;100.00
8653;BME280;4364;52.426;9.424;2022-12-29T00:36:13;99769.97;;;8.47;100.00
8653;BME280;4364;52.426;9.424;2022-12-29T00:38:46;99760.34;;;8.65;100.00
8653;BME280;4364;52.426;9.424;2022-12-29T00:41:32;99765.97;;;8.93;98.24
8653;BME280;4364;52.426;9.424;2022-12-29T00:44:17;99755.53;;;8.81;98.91
8653;BME280;4364;52.426;9.424;2022-12-29T00:46:44;99750.50;;;8.94;98.54
8653;BME280;4364;52.426;9.424;2022-12-29T00:49:12;99747.88;;;9.13;97.06
8653;BME280;4364;52.426;9.424;2022-12-29T00:51:58;99752.22;;;9.08;96.78
8653;BME280;4364;52.426;9.424;2022-12-29T00:54:28;99743.84;;;9.29;95.31
8653;BME280;4364;52.426;9.424;2022-12-29T00:56:56;99745.22;;;9.26;95.45
8653;BME280;4364;52.426;9.424;2022-12-29T00:59:23;99731.09;;;9.30;94.97
8653;BME280;4364;52.426;9.424;2022-12-29T01:01:51;99724.44;;;9.41;94.38
8653;BME280;4364;52.426;9.424;2022-12-29T01:04:20;99709.91;;;9.32;94.38
8653;BME280;4364;52.426;9.424;2022-12-29T01:06:47;99712.31;;;9.33;94.81
8653;BME280;4364;52.426;9.424;2022-12-29T01:09:15;99699.03;;;9.32;94.60
8653;BME280;4364;52.426;9.424;2022-12-29T01:12:02;99712.31;;;9.33;94.47
8653;BME280;4364;52.426;9.424;2022-12-29T01:14:29;99708.16;;;9.41;93.66
8653;BME280;4364;52.426;9.424;2022-12-29T01:16:56;99713.72;;;9.31;94.45
8653;BME280;4364;52.426;9.424;2022-12-29T01:19:23;99719.16;;;9.31;94.65
8653;BME280;4364;52.426;9.424;2022-12-29T01:21:50;99717.66;;;9.38;93.50
8653;BME280;4364;52.426;9.424;2022-12-29T01:24:19;99718.09;;;9.26;94.71
8653;BME280;4364;52.426;9.424;2022-12-29T01:26:47;99704.91;;;9.20;95.21
8653;BME280;4364;52.426;9.424;2022-12-29T01:29:16;99708.94;;;9.22;95.21
8653;BME280;4364;52.426;9.424;2022-12-29T01:31:44;99707.25;;;9.26;94.54
8653;BME280;4364;52.426;9.424;2022-12-29T01:34:11;99713.94;;;9.34;94.29
8653;BME280;4364;52.426;9.424;2022-12-29T01:36:39;99695.31;;;9.27;94.75
8653;BME280;4364;52.426;9.424;2022-12-29T01:39:05;99689.53;;;9.34;93.94
8653;BME280;4364;52.426;9.424;2022-12-29T01:41:32;99692.53;;;9.33;94.66
8653;BME280;4364;52.426;9.424;2022-12-29T01:44:00;99691.13;;;9.35;94.32
8653;BME280;4364;52.426;9.424;2022-12-29T01:46:43;99688.13;;;9.37;94.18
8653;BME280;4364;52.426;9.424;2022-12-29T01:49:18;99683.66;;;9.46;93.41
8653;BME280;4364;52.426;9.424;2022-12-29T01:54:38;99671.75;;;9.42;93.89
8653;BME280;4364;52.426;9.424;2022-12-29T01:57:10;99673.47;;;9.38;94.42
8653;BME280;4364;52.426;9.424;2022-12-29T01:59:45;99677.34;;;9.32;94.61
8653;BME280;4364;52.426;9.424;2022-12-29T02:02:13;99670.47;;;9.39;93.84
8653;BME280;4364;52.426;9.424;2022-12-29T02:04:41;99662.25;;;9.44;93.51
8653;BME280;4364;52.426;9.424;2022-12-29T02:07:21;99655.09;;;9.49;93.48
8653;BME280;4364;52.426;9.424;2022-12-29T02:09:50;99654.16;;;9.58;93.15
8653;BME280;4364;52.426;9.424;2022-12-29T02:12:20;99653.44;;;9.53;92.96
8653;BME280;4364;52.426;9.424;2022-12-29T02:14:50;99641.47;;;9.54;92.61
8653;BME280;4364;52.426;9.424;2022-12-29T02:17:50;99645.13;;;9.63;92.26
8653;BME280;4364;52.426;9.424;2022-12-29T02:26:11;99642.25;;;9.73;92.35
8653;BME280;4364;52.426;9.424;2022-12-29T02:29:23;99640.19;;;9.84;91.65
8653;BME280;4364;52.426;9.424;2022-12-29T02:38:13;99643.00;;;9.93;91.86
8653;BME280;4364;52.426;9.424;2022-12-29T02:41:05;99631.34;;;9.92;91.57
8653;BME280;4364;52.426;9.424;2022-12-29T02:46:19;99628.00;;;9.81;91.93
8653;BME280;4364;52.426;9.424;2022-12-29T02:49:19;99627.00;;;9.77;92.80
8653;BME280;4364;52.426;9.424;2022-12-29T02:52:00;99631.19;;;9.70;93.18
8653;BME280;4364;52.426;9.424;2022-12-29T02:54:29;99630.75;;;9.62;93.45
8653;BME280;4364;52.426;9.424;2022-12-29T02:59:54;99638.31;;;9.66;93.87
8653;BME280;4364;52.426;9.424;2022-12-29T03:08:06;99636.84;;;9.54;96.19
8653;BME280;4364;52.426;9.424;2022-12-29T03:10:59;99628.13;;;9.57;96.72
8653;BME280;4364;52.426;9.424;2022-12-29T03:13:49;99633.19;;;9.45;97.62
8653;BME280;4364;52.426;9.424;2022-12-29T03:16:50;99619.13;;;9.43;98.45
8653;BME280;4364;52.426;9.424;2022-12-29T03:19:35;99619.06;;;9.29;99.63
8653;BME280;4364;52.426;9.424;2022-12-29T03:22:07;99609.00;;;9.30;100.00
8653;BME280;4364;52.426;9.424;2022-12-29T03:25:06;99603.28;;;9.31;100.00
8653;BME280;4364;52.426;9.424;2022-12-29T03:27:41;99608.00;;;9.25;99.94
8653;BME280;4364;52.426;9.424;2022-12-29T03:30:08;99606.38;;;9.24;100.00
8653;BME280;4364;52.426;9.424;2022-12-29T03:32:42;99597.53;;;9.19;100.00
8653;BME280;4364;52.426;9.424;2022-12-29T03:35:13;99601.91;;;9.15;100.00
8653;BME280;4364;52.426;9.424;2022-12-29T03:37:48;99603.06;;;9.08;100.00
8653;BME280;4364;52.426;9.424;2022-12-29T03:40:16;99592.16;;;9.14;100.00
8653;BME280;4364;52.426;9.424;2022-12-29T03:42:45;99588.00;;;9.02;100.00
8653;BME280;4364;52.426;9.424;2022-12-29T03:45:13;99574.16;;;9.04;100.00
8653;BME280;4364;52.426;9.424;2022-12-29T03:47:40;99569.03;;;9.02;100.00
8653;BME280;4364;52.426;9.424;2022-12-29T03:50:08;99567.19;;;8.98;100.00
8653;BME280;4364;52.426;9.424;2022-12-29T03:52:38;99565.06;;;8.95;100.00
8653;BME280;4364;52.426;9.424;2022-12-29T03:55:05;99571.06;;;9.11;99.55
8653;BME280;4364;52.426;9.424;2022-12-29T03:57:32;99578.97;;;9.07;99.80
8653;BME280;4364;52.426;9.424;2022-12-29T04:00:05;99581.16;;;9.05;99.55
8653;BME280;4364;52.426;9.424;2022-12-29T04:02:40;99568.81;;;8.99;99.72
8653;BME280;4364;52.426;9.424;2022-12-29T04:05:10;99567.31;;;9.06;99.81
8653;BME280;4364;52.426;9.424;2022-12-29T04:07:37;99572.91;;;8.96;99.88
8653;BME280;4364;52.426;9.424;2022-12-29T04:10:04;99558.88;;;9.08;99.38
8653;BME280;4364;52.426;9.424;2022-12-29T04:12:33;99560.13;;;9.16;98.76
8653;BME280;4364;52.426;9.424;2022-12-29T04:15:00;99554.72;;;9.16;98.33
8653;BME280;4364;52.426;9.424;2022-12-29T04:17:28;99567.97;;;9.17;98.31
8653;BME280;4364;52.426;9.424;2022-12-29T04:19:54;99547.13;;;9.32;96.64
8653;BME280;4364;52.426;9.424;2022-12-29T04:22:42;99562.91;;;9.62;94.10
8653;BME280;4364;52.426;9.424;2022-12-29T04:25:08;99554.47;;;9.78;91.78
8653;BME280;4364;52.426;9.424;2022-12-29T04:27:35;99554.28;;;9.88;91.07
8653;BME280;4364;52.426;9.424;2022-12-29T04:30:21;99558.44;;;10.13;88.84
8653;BME280;4364;52.426;9.424;2022-12-29T04:33:07;99563.81;;;10.32;87.45
8653;BME280;4364;52.426;9.424;2022-12-29T04:35:34;99552.50;;;10.53;85.00
8653;BME280;4364;52.426;9.424;2022-12-29T04:38:02;99566.19;;;10.62;84.16
8653;BME280;4364;52.426;9.424;2022-12-29T04:40:29;99548.06;;;10.71;83.52
8653;BME280;4364;52.426;9.424;2022-12-29T04:42:55;99555.19;;;10.67;83.44
8653;BME280;4364;52.426;9.424;2022-12-29T04:45:23;99555.19;;;10.67;83.11
8653;BME280;4364;52.426;9.424;2022-12-29T04:47:56;99545.41;;;10.66;83.27
8653;BME280;4364;52.426;9.424;2022-12-29T04:50:58;99552.81;;;10.51;84.47
8653;BME280;4364;52.426;9.424;2022-12-29T04:53:27;99556.22;;;10.71;81.46
8653;BME280;4364;52.426;9.424;2022-12-29T04:55:54;99553.50;;;10.71;82.45
8653;BME280;4364;52.426;9.424;2022-12-29T04:58:21;99554.53;;;10.84;81.36
8653;BME280;4364;52.426;9.424;2022-12-29T05:00:51;99559.88;;;10.89;80.64
8653;BME280;4364;52.426;9.424;2022-12-29T05:03:21;99559.38;;;10.87;80.75
8653;BME280;4364;52.426;9.424;2022-12-29T05:05:48;99549.41;;;10.82;80.70
8653;BME280;4364;52.426;9.424;2022-12-29T05:08:16;99556.09;;;10.76;81.00
8653;BME280;4364;52.426;9.424;2022-12-29T05:10:46;99540.03;;;10.88;80.29
8653;BME280;4364;52.426;9.424;2022-12-29T05:13:14;99518.28;;;10.88;80.10
8653;BME280;4364;52.426;9.424;2022-12-29T05:15:54;99504.63;;;10.80;80.74
8653;BME280;4364;52.426;9.424;2022-12-29T05:18:22;99498.44;;;10.88;79.90
8653;BME280;4364;52.426;9.424;2022-12-29T05:20:49;99542.56;;;10.85;80.06
8653;BME280;4364;52.426;9.424;2022-12-29T05:23:16;99523.03;;;10.83;80.85
8653;BME280;4364;52.426;9.424;2022-12-29T05:25:48;99543.66;;;10.84;80.99
8653;BME280;4364;52.426;9.424;2022-12-29T05:28:17;99542.97;;;10.78;82.14
8653;BME280;4364;52.426;9.424;2022-12-29T05:30:58;99544.09;;;10.77;82.42
8653;BME280;4364;52.426;9.424;2022-12-29T05:33:24;99541.78;;;10.70;83.12
8653;BME280;4364;52.426;9.424;2022-12-29T05:35:51;99549.25;;;10.65;85.29
8653;BME280;4364;52.426;9.424;2022-12-29T05:38:18;99565.72;;;10.46;87.71
8653;BME280;4364;52.426;9.424;2022-12-29T05:40:45;99549.66;;;10.30;89.54
8653;BME280;4364;52.426;9.424;2022-12-29T05:43:41;99552.09;;;10.18;92.00
8653;BME280;4364;52.426;9.424;2022-12-29T05:46:26;99542.84;;;10.05;93.13
8653;BME280;4364;52.426;9.424;2022-12-29T05:49:07;99548.66;;;9.98;94.84
8653;BME280;4364;52.426;9.424;2022-12-29T05:51:51;99553.69;;;9.91;96.31
8653;BME280;4364;52.426;9.424;2022-12-29T05:54:17;99557.69;;;9.80;97.57
8653;BME280;4364;52.426;9.424;2022-12-29T05:56:44;99558.88;;;9.74;98.61
8653;BME280;4364;52.426;9.424;2022-12-29T05:59:11;99548.03;;;9.74;98.18
8653;BME280;4364;52.426;9.424;2022-12-29T06:01:38;99553.88;;;9.81;98.01
8653;BME280;4364;52.426;9.424;2022-12-29T06:04:06;99554.38;;;9.83;97.93
8653;BME280;4364;52.426;9.424;2022-12-29T06:06:33;99547.03;;;9.70;98.55
8653;BME280;4364;52.426;9.424;2022-12-29T06:08:59;99544.72;;;9.77;98.17
8653;BME280;4364;52.426;9.424;2022-12-29T06:11:27;99530.94;;;9.59;99.43
8653;BME280;4364;52.426;9.424;2022-12-29T06:13:57;99530.72;;;9.56;99.54
8653;BME280;4364;52.426;9.424;2022-12-29T06:16:23;99520.56;;;9.61;99.69
8653;BME280;4364;52.426;9.424;2022-12-29T06:18:53;99524.31;;;9.66;98.88
8653;BME280;4364;52.426;9.424;2022-12-29T06:21:21;99515.72;;;9.58;99.52
8653;BME280;4364;52.426;9.424;2022-12-29T06:23:47;99513.53;;;9.60;99.53
8653;BME280;4364;52.426;9.424;2022-12-29T06:26:14;99500.56;;;9.57;99.75
8653;BME280;4364;52.426;9.424;2022-12-29T06:28:40;99501.97;;;9.55;99.26
8653;BME280;4364;52.426;9.424;2022-12-29T06:31:09;99496.34;;;9.51;99.67
8653;BME280;4364;52.426;9.424;2022-12-29T06:33:38;99504.47;;;9.51;99.59
8653;BME280;4364;52.426;9.424;2022-12-29T06:36:05;99501.75;;;9.51;100.00
8653;BME280;4364;52.426;9.424;2022-12-29T06:38:31;99492.53;;;9.52;99.47
8653;BME280;4364;52.426;9.424;2022-12-29T06:40:58;99493.03;;;9.54;99.00
8653;BME280;4364;52.426;9.424;2022-12-29T06:43:33;99476.94;;;9.72;97.30
8653;BME280;4364;52.426;9.424;2022-12-29T06:46:18;99496.53;;;9.69;97.21
8653;BME280;4364;52.426;9.424;2022-12-29T06:48:44;99504.09;;;9.72;96.87
8653;BME280;4364;52.426;9.424;2022-12-29T06:51:11;99494.94;;;9.68;96.97
8653;BME280;4364;52.426;9.424;2022-12-29T06:53:38;99556.50;;;9.86;95.45
8653;BME280;4364;52.426;9.424;2022-12-29T06:56:04;99608.00;;;10.05;94.50
8653;BME280;4364;52.426;9.424;2022-12-29T06:58:31;99616.91;;;9.45;93.78
8653;BME280;4364;52.426;9.424;2022-12-29T07:00:57;99606.63;;;9.09;95.59
8653;BME280;4364;52.426;9.424;2022-12-29T07:03:24;99606.09;;;8.88;96.80
8653;BME280;4364;52.426;9.424;2022-12-29T07:05:50;99605.00;;;8.89;97.92
8653;BME280;4364;52.426;9.424;2022-12-29T07:08:17;99608.44;;;8.76;98.48
8653;BME280;4364;52.426;9.424;2022-12-29T07:10:43;99624.22;;;8.68;99.29
8653;BME280;4364;52.426;9.424;2022-12-29T07:13:10;99614.56;;;8.62;100.00
8653;BME280;4364;52.426;9.424;2022-12-29T07:15:37;99612.34;;;8.45;100.00
8653;BME280;4364;52.426;9.424;2022-12-29T07:18:04;99620.47;;;8.45;100.00
8653;BME280;4364;52.426;9.424;2022-12-29T07:20:31;99628.28;;;8.47;100.00
8653;BME280;4364;52.426;9.424;2022-12-29T07:22:58;99615.56;;;8.47;100.00
8653;BME280;4364;52.426;9.424;2022-12-29T07:25:24;99616.34;;;8.48;100.00
8653;BME280;4364;52.426;9.424;2022-12-29T07:27:51;99606.03;;;8.50;100.00
8653;BME280;4364;52.426;9.424;2022-12-29T07:30:17;99594.38;;;8.49;100.00
8653;BME280;4364;52.426;9.424;2022-12-29T07:32:44;99599.22;;;8.52;100.00
8653;BME280;4364;52.426;9.424;2022-12-29T07:35:11;99600.66;;;8.45;100.00
8653;BME280;4364;52.426;9.424;2022-12-29T07:37:37;99611.81;;;8.38;100.00
8653;BME280;4364;52.426;9.424;2022-12-29T07:40:04;99628.59;;;8.40;100.00
8653;BME280;4364;52.426;9.424;2022-12-29T07:42:31;99632.47;;;8.34;100.00
8653;BME280;4364;52.426;9.424;2022-12-29T07:44:58;99635.53;;;8.27;100.00
8653;BME280;4364;52.426;9.424;2022-12-29T07:47:29;99649.28;;;8.31;100.00
8653;BME280;4364;52.426;9.424;2022-12-29T07:49:56;99648.44;;;8.35;100.00
8653;BME280;4364;52.426;9.424;2022-12-29T07:52:22;99652.75;;;8.37;100.00
8653;BME280;4364;52.426;9.424;2022-12-29T07:54:49;99648.16;;;8.37;100.00
8653;BME280;4364;52.426;9.424;2022-12-29T07:57:15;99659.28;;;8.35;100.00
8653;BME280;4364;52.426;9.424;2022-12-29T07:59:42;99657.88;;;8.38;100.00
8653;BME280;4364;52.426;9.424;2022-12-29T08:02:10;99656.75;;;8.44;100.00
8653;BME280;4364;52.426;9.424;2022-12-29T08:04:37;99662.47;;;8.43;100.00
8653;BME280;4364;52.426;9.424;2022-12-29T08:07:04;99651.66;;;8.38;100.00
8653;BME280;4364;52.426;9.424;2022-12-29T08:09:30;99663.81;;;8.40;100.00
8653;BME280;4364;52.426;9.424;2022-12-29T08:11:57;99656.22;;;8.42;100.00
8653;BME280;4364;52.426;9.424;2022-12-29T08:14:23;99657.03;;;8.43;100.00
8653;BME280;4364;52.426;9.424;2022-12-29T08:16:50;99669.69;;;8.52;100.00
8653;BME280;4364;52.426;9.424;2022-12-29T08:19:16;99666.81;;;8.39;100.00
8653;BME280;4364;52.426;9.424;2022-12-29T08:21:42;99671.38;;;8.43;100.00
8653;BME280;4364;52.426;9.424;2022-12-29T08:24:09;99670.31;;;8.44;100.00
8653;BME280;4364;52.426;9.424;2022-12-29T08:26:36;99670.81;;;8.46;100.00
8653;BME280;4364;52.426;9.424;2022-12-29T08:29:02;99674.59;;;8.50;99.64
8653;BME280;4364;52.426;9.424;2022-12-29T08:31:29;99672.22;;;8.44;99.32
8653;BME280;4364;52.426;9.424;2022-12-29T08:33:56;99667.53;;;8.49;97.77
8653;BME280;4364;52.426;9.424;2022-12-29T08:36:22;99679.59;;;8.62;95.89
8653;BME280;4364;52.426;9.424;2022-12-29T08:38:49;99668.28;;;8.55;95.44
8653;BME280;4364;52.426;9.424;2022-12-29T08:41:15;99671.69;;;8.66;94.59
8653;BME280;4364;52.426;9.424;2022-12-29T08:43:46;99674.91;;;8.68;93.20
8653;BME280;4364;52.426;9.424;2022-12-29T08:46:13;99678.69;;;8.72;92.50
8653;BME280;4364;52.426;9.424;2022-12-29T08:48:39;99683.50;;;8.75;91.69
8653;BME280;4364;52.426;9.424;2022-12-29T08:51:06;99685.34;;;8.80;91.16
8653;BME280;4364;52.426;9.424;2022-12-29T08:53:34;99683.78;;;8.74;91.50
8653;BME280;4364;52.426;9.424;2022-12-29T08:56:02;99698.97;;;8.75;91.17
8653;BME280;4364;52.426;9.424;2022-12-29T08:58:40;99683.16;;;8.82;90.21
8653;BME280;4364;52.426;9.424;2022-12-29T09:01:07;99693.53;;;8.75;89.81
8653;BME280;4364;52.426;9.424;2022-12-29T09:03:33;99701.31;;;8.81;88.37
8653;BME280;4364;52.426;9.424;2022-12-29T09:06:20;99703.69;;;8.88;87.26
8653;BME280;4364;52.426;9.424;2022-12-29T09:08:47;99697.47;;;8.87;87.53
8653;BME280;4364;52.426;9.424;2022-12-29T09:11:20;99693.06;;;8.92;86.11
8653;BME280;4364;52.426;9.424;2022-12-29T09:13:47;99697.69;;;8.91;86.89
8653;BME280;4364;52.426;9.424;2022-12-29T09:16:15;99695.25;;;8.89;86.16
8653;BME280;4364;52.426;9.424;2022-12-29T09:18:43;99693.75;;;9.02;85.42
8653;BME280;4364;52.426;9.424;2022-12-29T09:21:11;99695.56;;;9.07;85.05
8653;BME280;4364;52.426;9.424;2022-12-29T09:23:38;99688.78;;;9.09;84.15
8653;BME280;4364;52.426;9.424;2022-12-29T09:26:07;99685.13;;;9.19;83.86
8653;BME280;4364;52.426;9.424;2022-12-29T09:28:34;99686.50;;;9.17;84.03
8653;BME280;4364;52.426;9.424;2022-12-29T09:31:01;99690.47;;;9.24;83.32
8653;BME280;4364;52.426;9.424;2022-12-29T09:33:27;99696.41;;;9.26;82.54
8653;BME280;4364;52.426;9.424;2022-12-29T09:35:56;99687.91;;;9.33;81.53
8653;BME280;4364;52.426;9.424;2022-12-29T09:38:24;99699.25;;;9.35;81.68
8653;BME280;4364;52.426;9.424;2022-12-29T09:40:56;99687.41;;;9.31;81.64
8653;BME280;4364;52.426;9.424;2022-12-29T09:46:27;99694.94;;;9.34;81.51
8653;BME280;4364;52.426;9.424;2022-12-29T09:49:19;99699.72;;;9.42;81.66
8653;BME280;4364;52.426;9.424;2022-12-29T09:51:53;99692.38;;;9.43;81.17
8653;BME280;4364;52.426;9.424;2022-12-29T09:56:57;99700.81;;;9.41;82.18
8653;BME280;4364;52.426;9.424;2022-12-29T09:59:42;99701.09;;;9.40;82.21
8653;BME280;4364;52.426;9.424;2022-12-29T10:02:40;99697.09;;;9.37;82.32
8653;BME280;4364;52.426;9.424;2022-12-29T10:05:45;99696.19;;;9.42;82.39
8653;BME280;4364;52.426;9.424;2022-12-29T10:08:37;99693.31;;;9.33;83.53
8653;BME280;4364;52.426;9.424;2022-12-29T10:13:42;99687.47;;;9.45;83.57
8653;BME280;4364;52.426;9.424;2022-12-29T10:16:34;99684.97;;;9.49;83.52
8653;BME280;4364;52.426;9.424;2022-12-29T10:19:28;99688.50;;;9.49;82.49
8653;BME280;4364;52.426;9.424;2022-12-29T10:22:07;99680.41;;;9.63;81.08
8653;BME280;4364;52.426;9.424;2022-12-29T10:24:38;99697.72;;;9.67;80.15
8653;BME280;4364;52.426;9.424;2022-12-29T10:27:10;99681.41;;;9.67;80.08
8653;BME280;4364;52.426;9.424;2022-12-29T10:29:42;99685.25;;;9.66;79.92
8653;BME280;4364;52.426;9.424;2022-12-29T10:32:29;99678.19;;;9.65;80.83
8653;BME280;4364;52.426;9.424;2022-12-29T10:35:05;99670.13;;;9.79;80.04
8653;BME280;4364;52.426;9.424;2022-12-29T10:37:49;99667.75;;;9.91;80.32
8653;BME280;4364;52.426;9.424;2022-12-29T10:40:36;99671.75;;;9.94;80.63
8653;BME280;4364;52.426;9.424;2022-12-29T10:43:18;99671.16;;;9.97;80.26
8653;BME280;4364;52.426;9.424;2022-12-29T10:45:47;99669.59;;;10.10;79.12
8653;BME280;4364;52.426;9.424;2022-12-29T10:48:22;99664.56;;;10.17;78.41
8653;BME280;4364;52.426;9.424;2022-12-29T10:50:58;99671.44;;;10.14;78.30
8653;BME280;4364;52.426;9.424;2022-12-29T10:53:37;99667.50;;;10.20;77.11
8653;BME280;4364;52.426;9.424;2022-12-29T10:56:13;99675.25;;;10.27;76.26
8653;BME280;4364;52.426;9.424;2022-12-29T10:58:42;99669.31;;;10.25;75.11
8653;BME280;4364;52.426;9.424;2022-12-29T11:01:16;99671.56;;;10.37;74.52
8653;BME280;4364;52.426;9.424;2022-12-29T11:04:16;99676.50;;;10.35;74.05
8653;BME280;4364;52.426;9.424;2022-12-29T11:06:46;99684.53;;;10.26;75.53
8653;BME280;4364;52.426;9.424;2022-12-29T11:09:23;99704.84;;;10.29;74.28
8653;BME280;4364;52.426;9.424;2022-12-29T11:12:28;99680.66;;;10.32;74.22
8653;BME280;4364;52.426;9.424;2022-12-29T11:17:49;99669.81;;;10.27;74.52
8653;BME280;4364;52.426;9.424;2022-12-29T11:20:34;99669.38;;;10.39;74.16
8653;BME280;4364;52.426;9.424;2022-12-29T11:23:02;99669.69;;;10.37;73.58
8653;BME280;4364;52.426;9.424;2022-12-29T11:25:29;99665.25;;;10.42;73.86
8653;BME280;4364;52.426;9.424;2022-12-29T11:28:02;99673.50;;;10.36;73.38
8653;BME280;4364;52.426;9.424;2022-12-29T11:30:31;99688.91;;;10.41;73.16
8653;BME280;4364;52.426;9.424;2022-12-29T11:33:02;99687.28;;;10.40;73.61
8653;BME280;4364;52.426;9.424;2022-12-29T11:35:50;99677.22;;;10.41;73.03
8653;BME280;4364;52.426;9.424;2022-12-29T11:38:27;99679.03;;;10.45;72.76
8653;BME280;4364;52.426;9.424;2022-12-29T11:40:57;99690.09;;;10.49;71.94
8653;BME280;4364;52.426;9.424;2022-12-29T11:45:56;99682.78;;;10.49;71.67
8653;BME280;4364;52.426;9.424;2022-12-29T11:48:23;99677.22;;;10.41;71.47
8653;BME280;4364;52.426;9.424;2022-12-29T11:50:55;99692.03;;;10.48;70.25
8653;BME280;4364;52.426;9.424;2022-12-29T11:53:32;99677.75;;;10.43;70.95
8653;BME280;4364;52.426;9.424;2022-12-29T11:56:06;99677.13;;;10.46;70.32
8653;BME280;4364;52.426;9.424;2022-12-29T11:58:37;99683.47;;;10.55;69.26
8653;BME280;4364;52.426;9.424;2022-12-29T12:01:20;99698.59;;;10.61;69.06
8653;BME280;4364;52.426;9.424;2022-12-29T12:03:59;99692.63;;;10.59;68.98
8653;BME280;4364;52.426;9.424;2022-12-29T12:06:29;99698.06;;;10.59;68.81
8653;BME280;4364;52.426;9.424;2022-12-29T12:09:02;99693.25;;;10.56;69.24
8653;BME280;4364;52.426;9.424;2022-12-29T12:11:34;99708.34;;;10.48;69.53
8653;BME280;4364;52.426;9.424;2022-12-29T12:14:10;99708.34;;;10.48;70.50
8653;BME280;4364;52.426;9.424;2022-12-29T12:17:02;99726.16;;;10.54;70.70
8653;BME280;4364;52.426;9.424;2022-12-29T12:22:19;99709.81;;;10.41;72.12
8653;BME280;4364;52.426;9.424;2022-12-29T12:25:10;99707.34;;;10.44;71.80
8653;BME280;4364;52.426;9.424;2022-12-29T12:28:05;99693.13;;;10.47;71.44
8653;BME280;4364;52.426;9.424;2022-12-29T12:30:39;99704.09;;;10.42;71.26
8653;BME280;4364;52.426;9.424;2022-12-29T12:33:35;99702.38;;;10.32;72.17
8653;BME280;4364;52.426;9.424;2022-12-29T12:38:54;99706.06;;;10.23;72.71
8653;BME280;4364;52.426;9.424;2022-12-29T12:44:10;99707.66;;;10.24;72.50
8653;BME280;4364;52.426;9.424;2022-12-29T12:46:59;99713.97;;;10.38;71.70
8653;BME280;4364;52.426;9.424;2022-12-29T12:49:41;99716.47;;;10.34;71.46
8653;BME280;4364;52.426;9.424;2022-12-29T12:52:37;99710.81;;;10.31;71.62
8653;BME280;4364;52.426;9.424;2022-12-29T12:55:41;99724.13;;;10.32;70.89
8653;BME280;4364;52.426;9.424;2022-12-29T12:58:22;99726.16;;;10.22;71.44
8653;BME280;4364;52.426;9.424;2022-12-29T13:06:46;99718.97;;;10.31;71.29
8653;BME280;4364;52.426;9.424;2022-12-29T13:15:01;99750.97;;;10.34;70.35
8653;BME280;4364;52.426;9.424;2022-12-29T13:17:42;99735.00;;;10.32;69.66
8653;BME280;4364;52.426;9.424;2022-12-29T13:20:26;99749.78;;;10.40;68.98
8653;BME280;4364;52.426;9.424;2022-12-29T13:23:17;99751.22;;;10.37;69.73
8653;BME280;4364;52.426;9.424;2022-12-29T13:31:27;99763.13;;;10.23;70.95
8653;BME280;4364;52.426;9.424;2022-12-29T13:36:34;99782.53;;;10.30;69.73
8653;BME280;4364;52.426;9.424;2022-12-29T13:39:18;99802.38;;;10.30;69.78
8653;BME280;4364;52.426;9.424;2022-12-29T13:41:53;99792.56;;;10.34;69.11
8653;BME280;4364;52.426;9.424;2022-12-29T13:44:37;99800.78;;;10.29;69.22
8653;BME280;4364;52.426;9.424;2022-12-29T13:47:18;99807.28;;;10.28;69.04
8653;BME280;4364;52.426;9.424;2022-12-29T13:49:47;99810.50;;;10.30;69.41
8653;BME280;4364;52.426;9.424;2022-12-29T13:52:26;99806.50;;;10.28;69.29
8653;BME280;4364;52.426;9.424;2022-12-29T13:55:18;99810.31;;;10.27;69.66
8653;BME280;4364;52.426;9.424;2022-12-29T13:58:00;99823.38;;;10.25;69.61
8653;BME280;4364;52.426;9.424;2022-12-29T14:00:38;99839.91;;;10.28;69.66
8653;BME280;4364;52.426;9.424;2022-12-29T14:03:39;99837.97;;;10.29;69.41
8653;BME280;4364;52.426;9.424;2022-12-29T14:08:53;99846.81;;;10.20;69.91
8653;BME280;4364;52.426;9.424;2022-12-29T14:11:23;99850.34;;;10.21;70.12
8653;BME280;4364;52.426;9.424;2022-12-29T14:13:55;99856.16;;;10.14;70.70
8653;BME280;4364;52.426;9.424;2022-12-29T14:18:56;99862.25;;;10.06;71.15
8653;BME280;4364;52.426;9.424;2022-12-29T14:21:29;99863.84;;;10.07;71.28
8653;BME280;4364;52.426;9.424;2022-12-29T14:24:26;99866.81;;;10.11;71.74
8653;BME280;4364;52.426;9.424;2022-12-29T14:26:53;99873.63;;;10.08;72.15
8653;BME280;4364;52.426;9.424;2022-12-29T14:31:52;99866.19;;;9.95;72.45
8653;BME280;4364;52.426;9.424;2022-12-29T14:37:01;99881.97;;;9.93;72.47
8653;BME280;4364;52.426;9.424;2022-12-29T14:39:35;99889.09;;;9.89;72.55
8653;BME280;4364;52.426;9.424;2022-12-29T14:45:02;99896.59;;;9.97;71.74
8653;BME280;4364;52.426;9.424;2022-12-29T14:47:40;99900.00;;;9.83;72.61
8653;BME280;4364;52.426;9.424;2022-12-29T14:57:47;99895.47;;;9.79;72.84
8653;BME280;4364;52.426;9.424;2022-12-29T15:00:24;99915.06;;;9.76;73.49
8653;BME280;4364;52.426;9.424;2022-12-29T15:03:14;99917.19;;;9.79;73.41
8653;BME280;4364;52.426;9.424;2022-12-29T15:05:55;99921.22;;;9.81;73.18
8653;BME280;4364;52.426;9.424;2022-12-29T15:08:25;99915.78;;;9.81;72.64
8653;BME280;4364;52.426;9.424;2022-12-29T15:10:55;99917.78;;;9.76;72.83
8653;BME280;4364;52.426;9.424;2022-12-29T15:13:32;99920.50;;;9.76;71.40
8653;BME280;4364;52.426;9.424;2022-12-29T15:15:59;99921.88;;;9.73;71.11
8653;BME280;4364;52.426;9.424;2022-12-29T15:18:29;99920.06;;;9.63;71.37
8653;BME280;4364;52.426;9.424;2022-12-29T15:21:04;99925.00;;;9.61;71.67
8653;BME280;4364;52.426;9.424;2022-12-29T15:23:32;99927.59;;;9.72;70.80
8653;BME280;4364;52.426;9.424;2022-12-29T15:26:04;99938.56;;;9.61;70.57
8653;BME280;4364;52.426;9.424;2022-12-29T15:28:39;99934.19;;;9.66;70.54
8653;BME280;4364;52.426;9.424;2022-12-29T15:31:11;99939.91;;;9.64;70.77